sensor_id;sensor_type;location;lat;lon;timestamp;P1;durP1;ratioP1;P2;durP2;ratioP2
10979;SDS011;5543;51.734;8.744;2023-04-21T00:02:10;3.90;;;3.25;;
10979;SDS011;5543;51.734;8.744;2023-04-21T00:04:41;4.80;;;3.38;;
10979;SDS011;5543;51.734;8.744;2023-04-21T00:07:11;4.47;;;2.75;;
10979;SDS011;5543;51.734;8.744;2023-04-21T00:09:39;5.97;;;3.22;;
10979;SDS011;5543;51.734;8.744;2023-04-21T00:12:08;4.35;;;3.03;;
10979;SDS011;5543;51.734;8.744;2023-04-21T00:14:36;5.15;;;4.15;;
10979;SDS011;5543;51.734;8.744;2023-04-21T00:17:05;2.95;;;2.58;;
10979;SDS011;5543;51.734;8.744;2023-04-21T00:19:34;4.32;;;2.90;;
10979;SDS011;5543;51.734;8.744;2023-04-21T00:22:02;5.28;;;3.58;;
10979;SDS011;5543;51.734;8.744;2023-04-21T00:24:33;2.80;;;2.55;;
10979;SDS011;5543;51.734;8.744;2023-04-21T00:27:01;3.30;;;2.33;;
10979;SDS011;5543;51.734;8.744;2023-04-21T00:29:29;5.95;;;3.33;;
10979;SDS011;5543;51.734;8.744;2023-04-21T00:31:57;2.97;;;2.70;;
10979;SDS011;5543;51.734;8.744;2023-04-21T00:34:27;5.88;;;3.60;;
10979;SDS011;5543;51.734;8.744;2023-04-21T00:36:56;4.50;;;2.55;;
10979;SDS011;5543;51.734;8.744;2023-04-21T00:39:24;4.32;;;3.55;;
10979;SDS011;5543;51.734;8.744;2023-04-21T00:41:52;4.90;;;3.17;;
10979;SDS011;5543;51.734;8.744;2023-04-21T00:44:20;5.25;;;2.95;;
10979;SDS011;5543;51.734;8.744;2023-04-21T00:46:48;2.88;;;2.47;;
10979;SDS011;5543;51.734;8.744;2023-04-21T00:49:16;4.60;;;3.58;;
10979;SDS011;5543;51.734;8.744;2023-04-21T00:51:44;4.32;;;2.63;;
10979;SDS011;5543;51.734;8.744;2023-04-21T00:54:14;3.72;;;2.80;;
10979;SDS011;5543;51.734;8.744;2023-04-21T00:56:43;6.13;;;3.17;;
10979;SDS011;5543;51.734;8.744;2023-04-21T00:59:11;5.40;;;3.75;;
10979;SDS011;5543;51.734;8.744;2023-04-21T01:01:39;4.38;;;2.63;;
10979;SDS011;5543;51.734;8.744;2023-04-21T01:04:07;3.15;;;2.78;;
10979;SDS011;5543;51.734;8.744;2023-04-21T01:06:36;5.10;;;3.53;;
10979;SDS011;5543;51.734;8.744;2023-04-21T01:09:05;4.40;;;3.00;;
10979;SDS011;5543;51.734;8.744;2023-04-21T01:11:34;4.90;;;3.90;;
10979;SDS011;5543;51.734;8.744;2023-04-21T01:14:02;3.55;;;3.25;;
10979;SDS011;5543;51.734;8.744;2023-04-21T01:16:30;2.53;;;2.30;;
10979;SDS011;5543;51.734;8.744;2023-04-21T01:19:00;4.05;;;2.85;;
10979;SDS011;5543;51.734;8.744;2023-04-21T01:21:35;3.78;;;2.95;;
10979;SDS011;5543;51.734;8.744;2023-04-21T01:24:06;4.35;;;3.22;;
10979;SDS011;5543;51.734;8.744;2023-04-21T01:26:34;4.43;;;3.25;;
10979;SDS011;5543;51.734;8.744;2023-04-21T01:29:05;2.63;;;2.05;;
10979;SDS011;5543;51.734;8.744;2023-04-21T01:31:33;4.75;;;3.05;;
10979;SDS011;5543;51.734;8.744;2023-04-21T01:34:02;4.18;;;3.20;;
10979;SDS011;5543;51.734;8.744;2023-04-21T01:36:41;2.88;;;2.55;;
10979;SDS011;5543;51.734;8.744;2023-04-21T01:39:28;3.83;;;2.95;;
10979;SDS011;5543;51.734;8.744;2023-04-21T01:42:21;3.90;;;2.60;;
10979;SDS011;5543;51.734;8.744;2023-04-21T01:45:28;3.10;;;2.28;;
10979;SDS011;5543;51.734;8.744;2023-04-21T01:48:01;3.35;;;2.47;;
10979;SDS011;5543;51.734;8.744;2023-04-21T01:50:29;2.75;;;2.55;;
10979;SDS011;5543;51.734;8.744;2023-04-21T01:52:59;3.45;;;2.53;;
10979;SDS011;5543;51.734;8.744;2023-04-21T01:55:27;5.22;;;3.15;;
10979;SDS011;5543;51.734;8.744;2023-04-21T01:57:55;3.70;;;3.05;;
10979;SDS011;5543;51.734;8.744;2023-04-21T02:00:24;3.20;;;2.90;;
10979;SDS011;5543;51.734;8.744;2023-04-21T02:02:52;3.28;;;2.45;;
10979;SDS011;5543;51.734;8.744;2023-04-21T02:05:21;3.97;;;3.03;;
10979;SDS011;5543;51.734;8.744;2023-04-21T02:07:49;4.15;;;3.03;;
10979;SDS011;5543;51.734;8.744;2023-04-21T02:10:18;3.80;;;2.72;;
10979;SDS011;5543;51.734;8.744;2023-04-21T02:12:46;3.90;;;2.95;;
10979;SDS011;5543;51.734;8.744;2023-04-21T02:15:14;3.20;;;2.58;;
10979;SDS011;5543;51.734;8.744;2023-04-21T02:17:42;5.35;;;3.35;;
10979;SDS011;5543;51.734;8.744;2023-04-21T02:20:10;4.05;;;3.60;;
10979;SDS011;5543;51.734;8.744;2023-04-21T02:22:38;4.18;;;2.92;;
10979;SDS011;5543;51.734;8.744;2023-04-21T02:25:07;3.83;;;3.15;;
10979;SDS011;5543;51.734;8.744;2023-04-21T02:27:36;4.22;;;3.58;;
10979;SDS011;5543;51.734;8.744;2023-04-21T02:30:05;3.70;;;2.92;;
10979;SDS011;5543;51.734;8.744;2023-04-21T02:32:36;3.55;;;2.58;;
10979;SDS011;5543;51.734;8.744;2023-04-21T02:35:04;3.85;;;3.45;;
10979;SDS011;5543;51.734;8.744;2023-04-21T02:37:34;3.60;;;2.45;;
10979;SDS011;5543;51.734;8.744;2023-04-21T02:40:02;3.65;;;2.90;;
10979;SDS011;5543;51.734;8.744;2023-04-21T02:42:31;4.38;;;3.05;;
10979;SDS011;5543;51.734;8.744;2023-04-21T02:45:01;8.60;;;3.65;;
10979;SDS011;5543;51.734;8.744;2023-04-21T02:47:29;3.97;;;2.58;;
10979;SDS011;5543;51.734;8.744;2023-04-21T02:49:58;2.72;;;1.98;;
10979;SDS011;5543;51.734;8.744;2023-04-21T02:52:26;2.90;;;2.33;;
10979;SDS011;5543;51.734;8.744;2023-04-21T02:54:54;4.68;;;3.10;;
10979;SDS011;5543;51.734;8.744;2023-04-21T02:57:22;4.47;;;3.03;;
10979;SDS011;5543;51.734;8.744;2023-04-21T02:59:50;2.55;;;2.17;;
10979;SDS011;5543;51.734;8.744;2023-04-21T03:02:19;2.63;;;2.38;;
10979;SDS011;5543;51.734;8.744;2023-04-21T03:04:47;4.55;;;3.05;;
10979;SDS011;5543;51.734;8.744;2023-04-21T03:07:16;3.83;;;2.83;;
10979;SDS011;5543;51.734;8.744;2023-04-21T03:09:44;4.30;;;2.92;;
10979;SDS011;5543;51.734;8.744;2023-04-21T03:12:12;3.80;;;2.92;;
10979;SDS011;5543;51.734;8.744;2023-04-21T03:14:40;3.53;;;2.63;;
10979;SDS011;5543;51.734;8.744;2023-04-21T03:17:08;3.70;;;2.53;;
10979;SDS011;5543;51.734;8.744;2023-04-21T03:19:37;3.85;;;2.70;;
10979;SDS011;5543;51.734;8.744;2023-04-21T03:22:05;2.63;;;2.33;;
10979;SDS011;5543;51.734;8.744;2023-04-21T03:24:33;3.88;;;2.92;;
10979;SDS011;5543;51.734;8.744;2023-04-21T03:27:01;4.35;;;3.25;;
10979;SDS011;5543;51.734;8.744;2023-04-21T03:29:31;4.88;;;3.03;;
10979;SDS011;5543;51.734;8.744;2023-04-21T03:31:59;3.88;;;3.55;;
10979;SDS011;5543;51.734;8.744;2023-04-21T03:34:27;3.10;;;2.45;;
10979;SDS011;5543;51.734;8.744;2023-04-21T03:36:57;4.57;;;3.63;;
10979;SDS011;5543;51.734;8.744;2023-04-21T03:39:25;4.35;;;3.17;;
10979;SDS011;5543;51.734;8.744;2023-04-21T03:41:53;3.03;;;2.28;;
10979;SDS011;5543;51.734;8.744;2023-04-21T03:44:21;3.38;;;2.65;;
10979;SDS011;5543;51.734;8.744;2023-04-21T03:46:51;3.25;;;2.60;;
10979;SDS011;5543;51.734;8.744;2023-04-21T03:49:20;3.22;;;2.85;;
10979;SDS011;5543;51.734;8.744;2023-04-21T03:51:48;3.67;;;3.13;;
10979;SDS011;5543;51.734;8.744;2023-04-21T03:54:17;5.82;;;3.58;;
10979;SDS011;5543;51.734;8.744;2023-04-21T03:56:46;3.25;;;2.40;;
10979;SDS011;5543;51.734;8.744;2023-04-21T03:59:14;4.18;;;3.38;;
10979;SDS011;5543;51.734;8.744;2023-04-21T04:01:42;4.03;;;3.15;;
10979;SDS011;5543;51.734;8.744;2023-04-21T04:04:10;3.72;;;3.17;;
10979;SDS011;5543;51.734;8.744;2023-04-21T04:06:39;3.78;;;2.88;;
10979;SDS011;5543;51.734;8.744;2023-04-21T04:09:07;3.03;;;2.40;;
10979;SDS011;5543;51.734;8.744;2023-04-21T04:11:36;4.95;;;2.80;;
10979;SDS011;5543;51.734;8.744;2023-04-21T04:14:04;2.72;;;2.25;;
10979;SDS011;5543;51.734;8.744;2023-04-21T04:16:32;4.13;;;3.30;;
10979;SDS011;5543;51.734;8.744;2023-04-21T04:19:01;2.85;;;2.58;;
10979;SDS011;5543;51.734;8.744;2023-04-21T04:21:29;3.45;;;2.67;;
10979;SDS011;5543;51.734;8.744;2023-04-21T04:23:57;5.07;;;4.00;;
10979;SDS011;5543;51.734;8.744;2023-04-21T04:26:27;4.80;;;2.88;;
10979;SDS011;5543;51.734;8.744;2023-04-21T04:28:57;4.18;;;3.15;;
10979;SDS011;5543;51.734;8.744;2023-04-21T04:31:25;4.13;;;3.50;;
10979;SDS011;5543;51.734;8.744;2023-04-21T04:33:54;4.25;;;2.97;;
10979;SDS011;5543;51.734;8.744;2023-04-21T04:36:22;3.85;;;3.28;;
10979;SDS011;5543;51.734;8.744;2023-04-21T04:38:51;3.13;;;2.83;;
10979;SDS011;5543;51.734;8.744;2023-04-21T04:41:19;4.13;;;2.88;;
10979;SDS011;5543;51.734;8.744;2023-04-21T04:43:47;3.75;;;2.67;;
10979;SDS011;5543;51.734;8.744;2023-04-21T04:46:17;5.05;;;3.20;;
10979;SDS011;5543;51.734;8.744;2023-04-21T04:48:46;4.25;;;3.25;;
10979;SDS011;5543;51.734;8.744;2023-04-21T04:51:15;3.95;;;3.20;;
10979;SDS011;5543;51.734;8.744;2023-04-21T04:53:43;3.10;;;2.67;;
10979;SDS011;5543;51.734;8.744;2023-04-21T04:56:11;2.53;;;2.25;;
10979;SDS011;5543;51.734;8.744;2023-04-21T04:58:39;3.53;;;2.78;;
10979;SDS011;5543;51.734;8.744;2023-04-21T05:01:10;3.88;;;2.83;;
10979;SDS011;5543;51.734;8.744;2023-04-21T05:03:40;5.97;;;3.67;;
10979;SDS011;5543;51.734;8.744;2023-04-21T05:06:09;4.93;;;3.47;;
10979;SDS011;5543;51.734;8.744;2023-04-21T05:08:39;3.97;;;3.20;;
10979;SDS011;5543;51.734;8.744;2023-04-21T05:11:07;3.30;;;2.90;;
10979;SDS011;5543;51.734;8.744;2023-04-21T05:13:35;3.85;;;3.28;;
10979;SDS011;5543;51.734;8.744;2023-04-21T05:16:06;3.95;;;3.60;;
10979;SDS011;5543;51.734;8.744;2023-04-21T05:18:36;5.07;;;3.20;;
10979;SDS011;5543;51.734;8.744;2023-04-21T05:21:06;3.78;;;2.92;;
10979;SDS011;5543;51.734;8.744;2023-04-21T05:23:34;3.72;;;2.70;;
10979;SDS011;5543;51.734;8.744;2023-04-21T05:26:02;3.40;;;2.78;;
10979;SDS011;5543;51.734;8.744;2023-04-21T05:28:30;2.90;;;2.58;;
10979;SDS011;5543;51.734;8.744;2023-04-21T05:30:58;3.55;;;3.00;;
10979;SDS011;5543;51.734;8.744;2023-04-21T05:33:26;2.92;;;2.50;;
10979;SDS011;5543;51.734;8.744;2023-04-21T05:35:57;4.45;;;3.03;;
10979;SDS011;5543;51.734;8.744;2023-04-21T05:38:26;3.78;;;2.88;;
10979;SDS011;5543;51.734;8.744;2023-04-21T05:43:24;3.63;;;3.20;;
10979;SDS011;5543;51.734;8.744;2023-04-21T05:45:53;4.13;;;2.88;;
10979;SDS011;5543;51.734;8.744;2023-04-21T05:48:21;3.45;;;2.63;;
10979;SDS011;5543;51.734;8.744;2023-04-21T05:50:49;4.43;;;3.05;;
10979;SDS011;5543;51.734;8.744;2023-04-21T05:53:17;4.55;;;3.92;;
10979;SDS011;5543;51.734;8.744;2023-04-21T05:55:47;2.97;;;2.63;;
10979;SDS011;5543;51.734;8.744;2023-04-21T05:58:16;11.02;;;3.40;;
10979;SDS011;5543;51.734;8.744;2023-04-21T06:00:44;3.15;;;2.85;;
10979;SDS011;5543;51.734;8.744;2023-04-21T06:03:14;4.72;;;2.80;;
10979;SDS011;5543;51.734;8.744;2023-04-21T06:05:42;4.40;;;3.25;;
10979;SDS011;5543;51.734;8.744;2023-04-21T06:08:11;2.75;;;2.55;;
10979;SDS011;5543;51.734;8.744;2023-04-21T06:10:42;5.93;;;4.28;;
10979;SDS011;5543;51.734;8.744;2023-04-21T06:13:16;3.67;;;3.25;;
10979;SDS011;5543;51.734;8.744;2023-04-21T06:15:46;4.75;;;3.65;;
10979;SDS011;5543;51.734;8.744;2023-04-21T06:18:14;3.70;;;3.15;;
10979;SDS011;5543;51.734;8.744;2023-04-21T06:20:48;2.90;;;2.60;;
10979;SDS011;5543;51.734;8.744;2023-04-21T06:23:17;4.45;;;2.92;;
10979;SDS011;5543;51.734;8.744;2023-04-21T06:25:45;4.00;;;3.20;;
10979;SDS011;5543;51.734;8.744;2023-04-21T06:28:13;2.35;;;2.15;;
10979;SDS011;5543;51.734;8.744;2023-04-21T06:30:46;3.95;;;2.85;;
10979;SDS011;5543;51.734;8.744;2023-04-21T06:33:16;5.07;;;2.58;;
10979;SDS011;5543;51.734;8.744;2023-04-21T06:35:44;3.00;;;2.35;;
10979;SDS011;5543;51.734;8.744;2023-04-21T06:38:13;3.92;;;2.83;;
10979;SDS011;5543;51.734;8.744;2023-04-21T06:40:41;3.53;;;2.53;;
10979;SDS011;5543;51.734;8.744;2023-04-21T06:43:10;2.33;;;2.13;;
10979;SDS011;5543;51.734;8.744;2023-04-21T06:45:40;3.35;;;2.67;;
10979;SDS011;5543;51.734;8.744;2023-04-21T06:48:09;5.93;;;3.60;;
10979;SDS011;5543;51.734;8.744;2023-04-21T06:50:38;3.72;;;3.40;;
10979;SDS011;5543;51.734;8.744;2023-04-21T06:53:06;2.90;;;2.00;;
10979;SDS011;5543;51.734;8.744;2023-04-21T06:55:37;3.90;;;2.85;;
10979;SDS011;5543;51.734;8.744;2023-04-21T06:58:05;3.30;;;2.60;;
10979;SDS011;5543;51.734;8.744;2023-04-21T07:00:33;3.40;;;2.20;;
10979;SDS011;5543;51.734;8.744;2023-04-21T07:03:03;3.60;;;2.20;;
10979;SDS011;5543;51.734;8.744;2023-04-21T07:05:32;2.95;;;2.42;;
10979;SDS011;5543;51.734;8.744;2023-04-21T07:08:00;2.88;;;2.55;;
10979;SDS011;5543;51.734;8.744;2023-04-21T07:10:28;6.03;;;4.43;;
10979;SDS011;5543;51.734;8.744;2023-04-21T07:12:57;4.72;;;3.42;;
10979;SDS011;5543;51.734;8.744;2023-04-21T07:15:25;2.67;;;2.35;;
10979;SDS011;5543;51.734;8.744;2023-04-21T07:17:53;2.70;;;2.50;;
10979;SDS011;5543;51.734;8.744;2023-04-21T07:20:22;2.63;;;2.40;;
10979;SDS011;5543;51.734;8.744;2023-04-21T07:22:51;2.28;;;2.08;;
10979;SDS011;5543;51.734;8.744;2023-04-21T07:25:19;2.67;;;2.22;;
10979;SDS011;5543;51.734;8.744;2023-04-21T07:27:47;2.58;;;2.08;;
10979;SDS011;5543;51.734;8.744;2023-04-21T07:30:15;2.17;;;1.90;;
10979;SDS011;5543;51.734;8.744;2023-04-21T07:32:43;2.55;;;2.10;;
10979;SDS011;5543;51.734;8.744;2023-04-21T07:35:12;3.45;;;2.58;;
10979;SDS011;5543;51.734;8.744;2023-04-21T07:37:41;3.28;;;2.30;;
10979;SDS011;5543;51.734;8.744;2023-04-21T07:40:10;2.70;;;2.47;;
10979;SDS011;5543;51.734;8.744;2023-04-21T07:42:38;2.88;;;2.60;;
10979;SDS011;5543;51.734;8.744;2023-04-21T07:45:06;3.35;;;2.53;;
10979;SDS011;5543;51.734;8.744;2023-04-21T07:47:35;2.85;;;2.42;;
10979;SDS011;5543;51.734;8.744;2023-04-21T07:50:03;2.50;;;2.30;;
10979;SDS011;5543;51.734;8.744;2023-04-21T07:52:33;3.20;;;2.47;;
10979;SDS011;5543;51.734;8.744;2023-04-21T07:55:02;2.95;;;2.65;;
10979;SDS011;5543;51.734;8.744;2023-04-21T07:57:31;3.55;;;2.75;;
10979;SDS011;5543;51.734;8.744;2023-04-21T08:00:04;2.67;;;2.10;;
10979;SDS011;5543;51.734;8.744;2023-04-21T08:02:33;3.15;;;2.78;;
10979;SDS011;5543;51.734;8.744;2023-04-21T08:05:01;2.40;;;2.20;;
10979;SDS011;5543;51.734;8.744;2023-04-21T08:07:30;3.30;;;2.33;;
10979;SDS011;5543;51.734;8.744;2023-04-21T08:09:58;2.78;;;2.13;;
10979;SDS011;5543;51.734;8.744;2023-04-21T08:12:29;2.38;;;2.05;;
10979;SDS011;5543;51.734;8.744;2023-04-21T08:14:57;3.33;;;1.98;;
10979;SDS011;5543;51.734;8.744;2023-04-21T08:17:31;2.97;;;2.25;;
10979;SDS011;5543;51.734;8.744;2023-04-21T08:20:00;1.80;;;1.63;;
10979;SDS011;5543;51.734;8.744;2023-04-21T08:22:29;2.00;;;1.90;;
10979;SDS011;5543;51.734;8.744;2023-04-21T08:25:01;2.35;;;1.88;;
10979;SDS011;5543;51.734;8.744;2023-04-21T08:27:31;2.42;;;2.22;;
10979;SDS011;5543;51.734;8.744;2023-04-21T08:29:59;2.00;;;1.83;;
10979;SDS011;5543;51.734;8.744;2023-04-21T08:32:28;1.90;;;1.80;;
10979;SDS011;5543;51.734;8.744;2023-04-21T08:34:56;2.38;;;1.92;;
10979;SDS011;5543;51.734;8.744;2023-04-21T08:37:24;3.10;;;2.00;;
10979;SDS011;5543;51.734;8.744;2023-04-21T08:39:54;1.83;;;1.73;;
10979;SDS011;5543;51.734;8.744;2023-04-21T08:42:22;3.60;;;3.25;;
10979;SDS011;5543;51.734;8.744;2023-04-21T08:44:52;3.95;;;2.00;;
10979;SDS011;5543;51.734;8.744;2023-04-21T08:47:21;2.92;;;2.08;;
10979;SDS011;5543;51.734;8.744;2023-04-21T08:49:51;1.85;;;1.65;;
10979;SDS011;5543;51.734;8.744;2023-04-21T08:52:20;3.20;;;2.47;;
10979;SDS011;5543;51.734;8.744;2023-04-21T08:54:48;3.35;;;2.13;;
10979;SDS011;5543;51.734;8.744;2023-04-21T08:57:18;3.00;;;2.55;;
10979;SDS011;5543;51.734;8.744;2023-04-21T08:59:47;3.50;;;2.38;;
10979;SDS011;5543;51.734;8.744;2023-04-21T09:02:17;3.35;;;2.22;;
10979;SDS011;5543;51.734;8.744;2023-04-21T09:04:46;3.17;;;2.50;;
10979;SDS011;5543;51.734;8.744;2023-04-21T09:10:01;6.30;;;4.30;;
10979;SDS011;5543;51.734;8.744;2023-04-21T09:12:31;8.20;;;5.70;;
10979;SDS011;5543;51.734;8.744;2023-04-21T09:15:02;3.78;;;2.80;;
10979;SDS011;5543;51.734;8.744;2023-04-21T09:17:33;3.28;;;2.60;;
10979;SDS011;5543;51.734;8.744;2023-04-21T09:20:12;2.60;;;2.38;;
10979;SDS011;5543;51.734;8.744;2023-04-21T09:22:42;2.67;;;2.45;;
10979;SDS011;5543;51.734;8.744;2023-04-21T09:25:14;3.45;;;2.40;;
10979;SDS011;5543;51.734;8.744;2023-04-21T09:27:43;2.90;;;2.50;;
10979;SDS011;5543;51.734;8.744;2023-04-21T09:30:12;3.13;;;2.53;;
10979;SDS011;5543;51.734;8.744;2023-04-21T09:32:46;4.28;;;3.05;;
10979;SDS011;5543;51.734;8.744;2023-04-21T09:35:15;3.58;;;3.03;;
10979;SDS011;5543;51.734;8.744;2023-04-21T09:37:43;2.50;;;2.20;;
10979;SDS011;5543;51.734;8.744;2023-04-21T09:40:12;2.97;;;2.45;;
10979;SDS011;5543;51.734;8.744;2023-04-21T09:42:41;3.05;;;2.75;;
10979;SDS011;5543;51.734;8.744;2023-04-21T09:45:10;3.08;;;2.47;;
10979;SDS011;5543;51.734;8.744;2023-04-21T09:47:42;3.70;;;2.45;;
10979;SDS011;5543;51.734;8.744;2023-04-21T09:50:18;3.17;;;2.58;;
10979;SDS011;5543;51.734;8.744;2023-04-21T09:53:08;2.33;;;2.13;;
10979;SDS011;5543;51.734;8.744;2023-04-21T09:55:40;3.60;;;2.70;;
10979;SDS011;5543;51.734;8.744;2023-04-21T09:58:09;2.35;;;2.00;;
10979;SDS011;5543;51.734;8.744;2023-04-21T10:00:40;2.83;;;2.50;;
10979;SDS011;5543;51.734;8.744;2023-04-21T10:03:09;2.97;;;2.67;;
10979;SDS011;5543;51.734;8.744;2023-04-21T10:05:41;3.08;;;2.78;;
10979;SDS011;5543;51.734;8.744;2023-04-21T10:08:10;2.85;;;2.60;;
10979;SDS011;5543;51.734;8.744;2023-04-21T10:10:38;2.85;;;2.58;;
10979;SDS011;5543;51.734;8.744;2023-04-21T10:13:11;2.47;;;2.28;;
10979;SDS011;5543;51.734;8.744;2023-04-21T10:15:43;3.10;;;2.40;;
10979;SDS011;5543;51.734;8.744;2023-04-21T10:18:14;2.70;;;2.40;;
10979;SDS011;5543;51.734;8.744;2023-04-21T10:20:50;2.50;;;2.30;;
10979;SDS011;5543;51.734;8.744;2023-04-21T10:23:27;2.50;;;2.30;;
10979;SDS011;5543;51.734;8.744;2023-04-21T10:26:03;2.55;;;2.08;;
10979;SDS011;5543;51.734;8.744;2023-04-21T10:28:43;3.38;;;2.53;;
10979;SDS011;5543;51.734;8.744;2023-04-21T10:31:16;2.97;;;2.30;;
10979;SDS011;5543;51.734;8.744;2023-04-21T10:37:11;2.63;;;2.42;;
10979;SDS011;5543;51.734;8.744;2023-04-21T10:39:45;2.38;;;2.17;;
10979;SDS011;5543;51.734;8.744;2023-04-21T10:42:21;2.75;;;2.42;;
10979;SDS011;5543;51.734;8.744;2023-04-21T10:44:52;3.67;;;2.85;;
10979;SDS011;5543;51.734;8.744;2023-04-21T10:47:28;2.08;;;1.85;;
10979;SDS011;5543;51.734;8.744;2023-04-21T10:50:19;2.80;;;1.80;;
10979;SDS011;5543;51.734;8.744;2023-04-21T10:52:53;2.70;;;2.35;;
10979;SDS011;5543;51.734;8.744;2023-04-21T10:55:26;2.17;;;1.77;;
10979;SDS011;5543;51.734;8.744;2023-04-21T10:57:56;2.40;;;2.20;;
10979;SDS011;5543;51.734;8.744;2023-04-21T11:00:28;1.70;;;1.60;;
10979;SDS011;5543;51.734;8.744;2023-04-21T11:02:57;3.40;;;3.10;;
10979;SDS011;5543;51.734;8.744;2023-04-21T11:05:32;2.25;;;2.05;;
10979;SDS011;5543;51.734;8.744;2023-04-21T11:08:06;2.38;;;2.10;;
10979;SDS011;5543;51.734;8.744;2023-04-21T11:10:47;2.25;;;1.83;;
10979;SDS011;5543;51.734;8.744;2023-04-21T11:13:21;1.77;;;1.67;;
10979;SDS011;5543;51.734;8.744;2023-04-21T11:15:55;1.92;;;1.77;;
10979;SDS011;5543;51.734;8.744;2023-04-21T11:18:31;2.20;;;2.00;;
10979;SDS011;5543;51.734;8.744;2023-04-21T11:21:13;2.35;;;2.15;;
10979;SDS011;5543;51.734;8.744;2023-04-21T11:23:48;2.22;;;2.03;;
10979;SDS011;5543;51.734;8.744;2023-04-21T11:26:21;2.20;;;2.00;;
10979;SDS011;5543;51.734;8.744;2023-04-21T11:28:58;3.15;;;2.15;;
10979;SDS011;5543;51.734;8.744;2023-04-21T11:31:28;3.35;;;2.00;;
10979;SDS011;5543;51.734;8.744;2023-04-21T11:33:57;2.08;;;1.77;;
10979;SDS011;5543;51.734;8.744;2023-04-21T11:36:26;2.67;;;2.20;;
10979;SDS011;5543;51.734;8.744;2023-04-21T11:38:56;2.30;;;1.75;;
10979;SDS011;5543;51.734;8.744;2023-04-21T11:41:24;2.22;;;1.95;;
10979;SDS011;5543;51.734;8.744;2023-04-21T11:43:53;2.00;;;1.80;;
10979;SDS011;5543;51.734;8.744;2023-04-21T11:46:22;2.58;;;2.15;;
10979;SDS011;5543;51.734;8.744;2023-04-21T11:48:58;2.03;;;1.83;;
10979;SDS011;5543;51.734;8.744;2023-04-21T11:51:31;2.50;;;1.88;;
10979;SDS011;5543;51.734;8.744;2023-04-21T11:54:01;2.38;;;1.92;;
10979;SDS011;5543;51.734;8.744;2023-04-21T11:56:33;1.55;;;1.45;;
10979;SDS011;5543;51.734;8.744;2023-04-21T11:59:05;1.30;;;1.20;;
10979;SDS011;5543;51.734;8.744;2023-04-21T12:01:34;1.50;;;1.40;;
10979;SDS011;5543;51.734;8.744;2023-04-21T12:04:12;1.65;;;1.55;;
10979;SDS011;5543;51.734;8.744;2023-04-21T12:06:43;2.28;;;1.50;;
10979;SDS011;5543;51.734;8.744;2023-04-21T12:09:16;2.58;;;1.85;;
10979;SDS011;5543;51.734;8.744;2023-04-21T12:11:46;1.52;;;1.42;;
10979;SDS011;5543;51.734;8.744;2023-04-21T12:14:16;1.10;;;1.08;;
10979;SDS011;5543;51.734;8.744;2023-04-21T12:16:47;2.25;;;1.90;;
10979;SDS011;5543;51.734;8.744;2023-04-21T12:19:23;1.90;;;1.80;;
10979;SDS011;5543;51.734;8.744;2023-04-21T12:22:00;2.00;;;1.80;;
10979;SDS011;5543;51.734;8.744;2023-04-21T12:24:34;1.95;;;1.25;;
10979;SDS011;5543;51.734;8.744;2023-04-21T12:27:03;1.77;;;1.33;;
10979;SDS011;5543;51.734;8.744;2023-04-21T12:29:32;1.65;;;1.40;;
10979;SDS011;5543;51.734;8.744;2023-04-21T12:32:02;1.48;;;1.35;;
10979;SDS011;5543;51.734;8.744;2023-04-21T12:34:31;2.03;;;1.45;;
10979;SDS011;5543;51.734;8.744;2023-04-21T12:37:00;1.10;;;0.88;;
10979;SDS011;5543;51.734;8.744;2023-04-21T12:39:29;1.35;;;1.25;;
10979;SDS011;5543;51.734;8.744;2023-04-21T12:41:59;3.63;;;1.70;;
10979;SDS011;5543;51.734;8.744;2023-04-21T12:44:28;1.50;;;1.40;;
10979;SDS011;5543;51.734;8.744;2023-04-21T12:46:56;3.13;;;1.38;;
10979;SDS011;5543;51.734;8.744;2023-04-21T12:49:25;1.13;;;1.05;;
10979;SDS011;5543;51.734;8.744;2023-04-21T12:51:53;1.38;;;1.27;;
10979;SDS011;5543;51.734;8.744;2023-04-21T12:54:21;1.30;;;1.20;;
10979;SDS011;5543;51.734;8.744;2023-04-21T12:56:50;1.73;;;1.23;;
10979;SDS011;5543;51.734;8.744;2023-04-21T12:59:20;1.20;;;1.10;;
10979;SDS011;5543;51.734;8.744;2023-04-21T13:01:49;1.30;;;1.20;;
10979;SDS011;5543;51.734;8.744;2023-04-21T13:04:17;1.30;;;1.20;;
10979;SDS011;5543;51.734;8.744;2023-04-21T13:06:46;1.30;;;1.20;;
10979;SDS011;5543;51.734;8.744;2023-04-21T13:09:15;1.30;;;1.20;;
10979;SDS011;5543;51.734;8.744;2023-04-21T13:11:43;1.60;;;1.50;;
10979;SDS011;5543;51.734;8.744;2023-04-21T13:14:12;1.65;;;1.55;;
10979;SDS011;5543;51.734;8.744;2023-04-21T13:16:42;1.45;;;1.35;;
10979;SDS011;5543;51.734;8.744;2023-04-21T13:19:10;1.52;;;1.42;;
10979;SDS011;5543;51.734;8.744;2023-04-21T13:21:39;2.50;;;1.50;;
10979;SDS011;5543;51.734;8.744;2023-04-21T13:24:07;1.30;;;1.20;;
10979;SDS011;5543;51.734;8.744;2023-04-21T13:26:40;1.52;;;1.42;;
10979;SDS011;5543;51.734;8.744;2023-04-21T13:29:08;1.38;;;1.27;;
10979;SDS011;5543;51.734;8.744;2023-04-21T13:31:36;1.50;;;1.40;;
10979;SDS011;5543;51.734;8.744;2023-04-21T13:34:06;1.45;;;1.23;;
10979;SDS011;5543;51.734;8.744;2023-04-21T13:36:34;1.35;;;1.25;;
10979;SDS011;5543;51.734;8.744;2023-04-21T13:39:03;6.32;;;2.03;;
10979;SDS011;5543;51.734;8.744;2023-04-21T13:41:35;2.13;;;1.58;;
10979;SDS011;5543;51.734;8.744;2023-04-21T13:44:04;2.15;;;1.85;;
10979;SDS011;5543;51.734;8.744;2023-04-21T13:46:32;1.65;;;1.35;;
10979;SDS011;5543;51.734;8.744;2023-04-21T13:49:00;1.40;;;1.30;;
10979;SDS011;5543;51.734;8.744;2023-04-21T13:51:30;1.40;;;1.30;;
10979;SDS011;5543;51.734;8.744;2023-04-21T13:53:59;1.50;;;1.40;;
10979;SDS011;5543;51.734;8.744;2023-04-21T13:56:27;1.30;;;1.20;;
10979;SDS011;5543;51.734;8.744;2023-04-21T13:58:55;2.05;;;1.60;;
10979;SDS011;5543;51.734;8.744;2023-04-21T14:01:24;1.83;;;1.50;;
10979;SDS011;5543;51.734;8.744;2023-04-21T14:03:53;1.60;;;1.45;;
10979;SDS011;5543;51.734;8.744;2023-04-21T14:06:23;1.30;;;1.20;;
10979;SDS011;5543;51.734;8.744;2023-04-21T14:08:53;2.17;;;1.98;;
10979;SDS011;5543;51.734;8.744;2023-04-21T14:11:22;1.80;;;1.60;;
10979;SDS011;5543;51.734;8.744;2023-04-21T14:13:50;2.38;;;1.70;;
10979;SDS011;5543;51.734;8.744;2023-04-21T14:16:34;1.60;;;1.50;;
10979;SDS011;5543;51.734;8.744;2023-04-21T14:19:03;1.58;;;1.48;;
10979;SDS011;5543;51.734;8.744;2023-04-21T14:21:31;1.90;;;1.60;;
10979;SDS011;5543;51.734;8.744;2023-04-21T14:24:01;1.83;;;1.60;;
10979;SDS011;5543;51.734;8.744;2023-04-21T14:26:29;2.13;;;1.92;;
10979;SDS011;5543;51.734;8.744;2023-04-21T14:28:58;1.60;;;1.42;;
10979;SDS011;5543;51.734;8.744;2023-04-21T14:31:27;2.17;;;1.73;;
10979;SDS011;5543;51.734;8.744;2023-04-21T14:33:55;1.75;;;1.65;;
10979;SDS011;5543;51.734;8.744;2023-04-21T14:36:23;1.98;;;1.80;;
10979;SDS011;5543;51.734;8.744;2023-04-21T14:38:53;1.83;;;1.63;;
10979;SDS011;5543;51.734;8.744;2023-04-21T14:41:23;2.40;;;1.50;;
10979;SDS011;5543;51.734;8.744;2023-04-21T14:43:51;1.58;;;1.48;;
10979;SDS011;5543;51.734;8.744;2023-04-21T14:46:22;2.60;;;1.45;;
10979;SDS011;5543;51.734;8.744;2023-04-21T14:48:50;1.33;;;1.23;;
10979;SDS011;5543;51.734;8.744;2023-04-21T14:51:18;1.23;;;1.10;;
10979;SDS011;5543;51.734;8.744;2023-04-21T14:53:47;1.45;;;1.35;;
10979;SDS011;5543;51.734;8.744;2023-04-21T14:56:15;1.45;;;1.35;;
10979;SDS011;5543;51.734;8.744;2023-04-21T14:58:46;2.55;;;1.60;;
10979;SDS011;5543;51.734;8.744;2023-04-21T15:01:14;1.40;;;1.30;;
10979;SDS011;5543;51.734;8.744;2023-04-21T15:03:42;1.45;;;1.35;;
10979;SDS011;5543;51.734;8.744;2023-04-21T15:06:10;1.42;;;1.33;;
10979;SDS011;5543;51.734;8.744;2023-04-21T15:08:39;1.55;;;1.45;;
10979;SDS011;5543;51.734;8.744;2023-04-21T15:11:07;1.30;;;1.10;;
10979;SDS011;5543;51.734;8.744;2023-04-21T15:13:35;1.45;;;1.35;;
10979;SDS011;5543;51.734;8.744;2023-04-21T15:16:05;1.45;;;1.33;;
10979;SDS011;5543;51.734;8.744;2023-04-21T15:18:34;1.50;;;1.40;;
10979;SDS011;5543;51.734;8.744;2023-04-21T15:21:02;1.40;;;1.27;;
10979;SDS011;5543;51.734;8.744;2023-04-21T15:23:30;1.55;;;1.40;;
10979;SDS011;5543;51.734;8.744;2023-04-21T15:26:01;1.42;;;1.30;;